Terminal Aerodrome Forecast
Issued by NWS Houston/Galveston, TX

Home | Current Version | Previous Version | Text Only | Print | Product List | Glossary On
Versions: 1 2 3 4 5 6 7 8 9 10 11 12 13 14 15 16 17
000
FTUS44 KHGX 201722
TAFCLL
TAF
KCLL 201722Z 2018/2118 16010KT P6SM SCT080 SCT250
     FM210100 17006KT P6SM SCT060 BKN090
     FM210700 17006KT 6SM BR SCT012 BKN020
     FM210900 18004KT 2SM BR OVC007
      TEMPO 2111/2113 OVC003
     FM211500 18010KT P6SM BKN015=

USA.gov is the U.S. government's official web portal to all federal, state and local government web resources and services.